Iliamna, AK

6:39 AM AKST on December 28, 2014 (GMT -0900)
Koliganek New Airport (New) | Change Station
CLOSE
Current Station
Airport
Location: Koliganek New Airport (New),
Elevation: 269 ft
Nearby Weather Stations

Elev 269 ft 59.73 °N, 157.26 °W | Updated 7 minutes ago

Overcast
Overcast
36 °F
Feels Like 23 °F
N
26
Wind Variable Wind from ESE
Gusts 37 mph

Today
High -- | Low -- °F
--% Chance of Precip.
Yesterday
High -- | Low -- °F
Precip. -- in
10:20 AM 4:24 PM
Waxing Crescent, 49% visible
Pressure 30.09 in
Visibility 10.0 miles
Clouds Few 2100 ft
Mostly Cloudy 2800 ft
Overcast 4500 ft
Windchill 23 °F
Dew Point 32 °F
Humidity 87%
Rainfall 0.00 in
Snow Depth Not available.
UV 0 out of 12
Pollen Not available.
Air Quality Not available.
Flu Activity Not available.
SPECI PAJZ 281532Z AUTO 12023G32KT 10SM FEW021 BKN028 OVC045 02/00 A3009 RMK AO2 TSNO BKN V OVC PK WND 12032/1504 $

More Conditions Fewer Conditions

Pressure 30.09 in
Visibility 10.0 miles
Clouds Few 2100 ft
Mostly Cloudy 2800 ft
Overcast 4500 ft
Windchill 23 °F
Dew Point 32 °F
Humidity 87%
Rainfall 0.00 in
Snow Depth Not available.
UV 0 out of 12
Pollen Not available.
Air Quality Not available.
Flu Activity Not available.
SPECI PAJZ 281532Z AUTO 12023G32KT 10SM FEW021 BKN028 OVC045 02/00 A3009 RMK AO2 TSNO BKN V OVC PK WND 12032/1504 $

More Conditions Fewer Conditions

10-Day Weather Forecast

Almanac

Astronomy

Dec. 28, 2014 Rise Set
Actual Time
Civil Twilight
Nautical Twilight
Astronomical Twilight
Moon
Length of Visible Light
Length of Day
Tomorrow will be .
, % of the Moon is Illuminated

Today's Extremes

State Highs State Lows

Community

WunderPhotos

Upload Photos

1,781,307 photos uploaded!

WunderBlogs® & News

Nearby

Air Quality

  Air Quality AQ Index Pollutant
Not available.

Snow Depth

Station Depth Elevation

Earthquake Activity

City Distance Mag. Time & Date
Minimum magnitude displayed is 2.5.

Coastal Water Temperatures

Place Temperature

Nearby Weather Stations